Time;durP1;ratioP1;P1;durP2;ratioP2;P2;SDS_P1;SDS_P2;PMS_P1;PMS_P2;Temp;Humidity;BMP_temperature;BMP_pressure;BME280_temperature;BME280_humidity;BME280_pressure;Samples;Min_cycle;Max_cycle;Signal;HPM_P1;HPM_P2
2023/08/10 00:01:28;;;;;;;9.18;6.40;;;;;;;13.62;100.00;100762.81;5047737;28;20060;-75
2023/08/10 00:03:56;;;;;;;7.13;6.18;;;;;;;13.72;100.00;100781.81;5045436;28;20057;-75
2023/08/10 00:06:24;;;;;;;11.32;6.95;;;;;;;13.62;100.00;100771.66;5045298;28;20045;-75
2023/08/10 00:08:52;;;;;;;10.55;7.20;;;;;;;13.57;100.00;100773.72;5045544;28;20505;-75
2023/08/10 00:11:20;;;;;;;9.95;6.95;;;;;;;13.59;100.00;100781.59;5043035;28;20055;-77
2023/08/10 00:13:48;;;;;;;9.43;6.60;;;;;;;13.55;100.00;100783.56;5047785;28;20107;-74
2023/08/10 00:16:16;;;;;;;13.65;6.40;;;;;;;13.51;100.00;100781.19;5051371;28;20045;-76
2023/08/10 00:18:45;;;;;;;9.27;6.90;;;;;;;13.46;100.00;100781.41;5049053;28;20414;-76
2023/08/10 00:21:14;;;;;;;11.52;6.93;;;;;;;13.17;100.00;100737.72;5019956;28;20506;-75
2023/08/10 00:23:42;;;;;;;8.52;6.85;;;;;;;13.41;100.00;100788.75;5046388;28;20104;-76
2023/08/10 00:26:09;;;;;;;13.30;7.80;;;;;;;13.39;100.00;100792.44;5012355;28;20049;-77
2023/08/10 00:28:37;;;;;;;9.82;7.22;;;;;;;13.37;100.00;100791.69;5029289;28;20041;-76
2023/08/10 00:31:05;;;;;;;12.43;7.22;;;;;;;13.36;100.00;100789.97;5041246;28;20052;-75
2023/08/10 00:33:37;;;;;;;12.70;6.57;;;;;;;13.44;100.00;100793.06;5029001;28;20049;-75
2023/08/10 00:36:08;;;;;;;10.93;6.93;;;;;;;13.47;100.00;100790.25;5044681;28;20045;-75
2023/08/10 00:38:38;;;;;;;7.18;6.05;;;;;;;13.52;100.00;100796.19;5032262;28;20052;-76
2023/08/10 00:41:07;;;;;;;8.02;6.38;;;;;;;13.45;100.00;100800.97;5040918;28;20229;-76
2023/08/10 00:43:37;;;;;;;7.63;5.68;;;;;;;13.46;100.00;100796.50;5043515;28;20075;-76
2023/08/10 00:46:06;;;;;;;8.97;6.70;;;;;;;13.38;100.00;100788.91;5042949;28;20042;-76
2023/08/10 00:48:34;;;;;;;9.52;6.45;;;;;;;13.44;100.00;100803.72;5042577;28;20525;-75
2023/08/10 00:51:04;;;;;;;8.13;6.07;;;;;;;13.41;100.00;100793.22;5034815;28;20045;-76
2023/08/10 00:53:33;;;;;;;9.73;5.78;;;;;;;13.46;100.00;100796.50;5038861;28;20041;-75
2023/08/10 00:56:06;;;;;;;10.07;5.88;;;;;;;13.54;100.00;100802.28;5045906;28;20056;-75
2023/08/10 00:58:34;;;;;;;8.35;5.80;;;;;;;13.48;100.00;100778.66;5044532;28;20044;-76
2023/08/10 01:01:02;;;;;;;8.88;6.25;;;;;;;13.66;100.00;100810.50;5032338;28;20095;-75
2023/08/10 01:03:30;;;;;;;8.18;6.07;;;;;;;13.59;100.00;100800.25;5045245;28;20056;-75
2023/08/10 01:06:10;;;;;;;9.05;6.55;;;;;;;13.44;100.00;100793.06;5034827;28;20065;-75
2023/08/10 01:08:49;;;;;;;6.75;6.03;;;;;;;13.41;100.00;100804.72;5044697;28;20048;-75
2023/08/10 01:11:25;;;;;;;7.80;6.25;;;;;;;13.27;100.00;100794.81;5024580;28;20052;-76
2023/08/10 01:14:05;;;;;;;11.70;6.82;;;;;;;13.42;100.00;100816.22;5037702;28;20052;-77
2023/08/10 01:16:34;;;;;;;8.48;6.57;;;;;;;13.45;100.00;100806.28;5054798;28;20048;-77
2023/08/10 01:19:11;;;;;;;8.48;6.38;;;;;;;13.40;100.00;100788.84;5039950;28;20049;-76
2023/08/10 01:21:49;;;;;;;8.88;6.50;;;;;;;13.55;100.00;100796.88;5033846;28;20052;-77
2023/08/10 01:24:27;;;;;;;7.85;5.95;;;;;;;13.63;100.00;100805.31;5042298;28;20101;-74
2023/08/10 01:26:56;;;;;;;9.95;6.20;;;;;;;13.58;100.00;100786.06;5045227;28;20493;-75
2023/08/10 01:29:25;;;;;;;7.65;6.00;;;;;;;13.78;100.00;100803.66;5041489;28;20045;-75
2023/08/10 01:31:54;;;;;;;9.05;6.45;;;;;;;13.74;100.00;100778.13;5041887;28;20046;-76
2023/08/10 01:34:22;;;;;;;9.48;5.85;;;;;;;13.88;100.00;100804.84;5051485;28;20049;-76
2023/08/10 01:36:51;;;;;;;12.57;6.22;;;;;;;13.84;100.00;100797.16;5055233;28;20487;-76
2023/08/10 01:39:20;;;;;;;9.27;5.78;;;;;;;13.88;100.00;100811.97;5067592;28;20049;-76
2023/08/10 01:41:48;;;;;;;8.23;5.60;;;;;;;13.90;100.00;100812.75;5045570;28;20032;-75
2023/08/10 01:44:17;;;;;;;7.70;5.72;;;;;;;13.91;100.00;100811.81;5049452;28;20148;-76
2023/08/10 01:46:47;;;;;;;8.40;5.78;;;;;;;13.91;100.00;100826.00;5040815;28;20539;-75
2023/08/10 01:49:18;;;;;;;9.40;5.35;;;;;;;13.80;100.00;100803.56;5038613;28;20048;-75
2023/08/10 01:51:48;;;;;;;12.38;5.72;;;;;;;13.93;100.00;100837.44;5038545;28;20140;-75
2023/08/10 01:54:17;;;;;;;8.32;6.18;;;;;;;13.79;100.00;100816.00;5042006;28;20052;-75
2023/08/10 01:56:45;;;;;;;8.10;6.18;;;;;;;13.78;100.00;100827.59;5040159;28;20421;-77
2023/08/10 01:59:13;;;;;;;9.63;5.97;;;;;;;13.64;100.00;100812.38;5043494;28;20053;-77
2023/08/10 02:01:44;;;;;;;15.57;5.95;;;;;;;13.74;100.00;100836.69;5020246;28;20038;-77
2023/08/10 02:04:12;;;;;;;8.32;6.07;;;;;;;13.64;100.00;100830.13;5041873;28;20131;-76
2023/08/10 02:06:40;;;;;;;9.45;6.15;;;;;;;13.64;100.00;100841.66;5048735;28;20037;-76
2023/08/10 02:09:10;;;;;;;11.57;5.97;;;;;;;13.74;100.00;100842.00;5041244;28;20064;-77
2023/08/10 02:11:39;;;;;;;8.32;5.65;;;;;;;13.76;100.00;100823.28;5037483;28;20110;-74
2023/08/10 02:14:07;;;;;;;9.48;5.80;;;;;;;13.66;100.00;100813.16;5044252;28;20522;-76
2023/08/10 02:16:35;;;;;;;7.43;5.70;;;;;;;13.70;100.00;100827.13;5044672;28;20041;-75
2023/08/10 02:19:04;;;;;;;6.97;5.60;;;;;;;13.49;100.00;100794.56;5042023;28;20132;-75
2023/08/10 02:21:34;;;;;;;8.10;5.40;;;;;;;13.53;100.00;100796.13;5034439;28;20086;-76
2023/08/10 02:24:02;;;;;;;9.50;5.45;;;;;;;13.68;100.00;100813.94;5034852;28;20909;-75
2023/08/10 02:26:31;;;;;;;8.93;5.75;;;;;;;13.74;100.00;100811.88;5040221;28;20091;-75
2023/08/10 02:29:00;;;;;;;7.85;5.60;;;;;;;13.67;100.00;100808.69;5037044;28;20045;-76
2023/08/10 02:31:28;;;;;;;9.85;5.45;;;;;;;13.64;100.00;100817.69;5046412;28;20139;-75
2023/08/10 02:33:56;;;;;;;9.27;5.45;;;;;;;13.55;100.00;100802.19;5043517;28;20045;-76
2023/08/10 02:36:25;;;;;;;6.28;5.00;;;;;;;13.63;100.00;100800.00;5021364;28;20130;-76
2023/08/10 02:38:53;;;;;;;8.05;5.63;;;;;;;13.57;100.00;100791.47;5043661;28;20049;-74
2023/08/10 02:41:24;;;;;;;8.23;5.40;;;;;;;13.69;100.00;100812.97;5033292;28;20046;-75
2023/08/10 02:43:51;;;;;;;9.65;5.38;;;;;;;13.58;100.00;100803.84;5043719;28;20041;-76
2023/08/10 02:46:21;;;;;;;9.43;5.63;;;;;;;13.58;100.00;100810.03;5043458;28;20676;-75
2023/08/10 02:48:49;;;;;;;9.02;4.80;;;;;;;13.61;100.00;100817.84;5043616;28;20690;-76
2023/08/10 02:51:17;;;;;;;7.93;5.10;;;;;;;13.51;100.00;100816.63;5038124;28;20056;-75
2023/08/10 02:53:47;;;;;;;8.43;5.10;;;;;;;13.44;100.00;100822.31;5050220;28;20065;-75
2023/08/10 02:56:15;;;;;;;7.20;4.95;;;;;;;13.38;100.00;100820.00;5053949;28;20052;-76
2023/08/10 02:58:44;;;;;;;8.77;5.13;;;;;;;13.26;100.00;100814.34;5031018;28;20141;-76
2023/08/10 03:01:13;;;;;;;7.35;5.30;;;;;;;13.27;100.00;100834.69;5032289;28;20040;-77
2023/08/10 03:03:42;;;;;;;8.10;5.57;;;;;;;13.06;100.00;100803.88;4998160;28;20197;-77
2023/08/10 03:06:10;;;;;;;10.82;5.88;;;;;;;13.17;100.00;100827.28;5033140;28;20465;-76
2023/08/10 03:08:40;;;;;;;5.82;5.22;;;;;;;13.19;100.00;100841.34;5036828;28;20056;-75
2023/08/10 03:11:09;;;;;;;6.72;4.90;;;;;;;13.15;100.00;100829.16;5041566;28;20040;-76
2023/08/10 03:13:38;;;;;;;7.38;5.30;;;;;;;13.06;100.00;100810.97;5028671;28;20049;-75
2023/08/10 03:16:09;;;;;;;8.00;5.45;;;;;;;13.09;100.00;100808.13;5041737;28;20045;-75
2023/08/10 03:18:38;;;;;;;9.93;5.18;;;;;;;13.19;100.00;100825.41;5024306;28;20096;-74
2023/08/10 03:21:06;;;;;;;11.02;5.70;;;;;;;13.18;100.00;100827.19;5043073;28;20048;-74
2023/08/10 03:23:35;;;;;;;6.80;5.18;;;;;;;13.07;100.00;100815.31;5048997;28;20057;-76
2023/08/10 03:26:03;;;;;;;6.18;5.25;;;;;;;13.11;100.00;100827.53;5040212;28;21038;-76
2023/08/10 03:28:33;;;;;;;6.18;5.32;;;;;;;12.98;100.00;100820.19;5042756;28;20090;-76
2023/08/10 03:31:03;;;;;;;10.27;5.20;;;;;;;13.05;100.00;100827.88;5035486;28;20049;-77
2023/08/10 03:33:32;;;;;;;9.52;5.78;;;;;;;13.03;100.00;100827.09;5042365;28;20188;-76
2023/08/10 03:36:01;;;;;;;7.82;5.10;;;;;;;12.94;100.00;100809.78;5024111;28;20147;-76
2023/08/10 03:38:29;;;;;;;7.45;5.30;;;;;;;13.00;100.00;100834.25;5029228;28;20041;-75
2023/08/10 03:40:57;;;;;;;7.32;4.78;;;;;;;12.97;100.00;100825.56;5041487;28;20535;-76
2023/08/10 03:43:24;;;;;;;8.27;5.40;;;;;;;12.92;100.00;100830.25;5038548;28;20054;-74
2023/08/10 03:45:55;;;;;;;5.75;4.78;;;;;;;12.89;100.00;100836.59;5054414;28;20049;-76
2023/08/10 03:48:23;;;;;;;5.95;4.95;;;;;;;12.91;100.00;100840.03;5054106;28;20047;-74
2023/08/10 03:50:51;;;;;;;6.88;5.70;;;;;;;12.91;100.00;100837.38;5044692;28;20049;-77
2023/08/10 03:53:19;;;;;;;8.38;5.18;;;;;;;12.91;100.00;100847.13;5047244;28;20047;-76
2023/08/10 03:55:47;;;;;;;6.45;5.68;;;;;;;12.89;100.00;100839.25;5052059;28;20053;-76
2023/08/10 03:58:15;;;;;;;7.30;5.47;;;;;;;12.87;100.00;100832.28;5025847;28;20047;-74
2023/08/10 04:00:45;;;;;;;5.95;5.05;;;;;;;12.87;100.00;100841.13;5050350;28;20075;-75
2023/08/10 04:03:16;;;;;;;7.32;5.60;;;;;;;12.85;100.00;100848.31;5037698;28;20037;-74
2023/08/10 04:05:44;;;;;;;6.82;4.90;;;;;;;12.83;100.00;100847.53;5025533;28;20498;-75
2023/08/10 04:08:12;;;;;;;8.10;5.45;;;;;;;12.76;100.00;100830.16;5023479;28;20478;-76
2023/08/10 04:10:43;;;;;;;7.38;5.10;;;;;;;12.83;100.00;100842.22;5038944;28;20132;-75
2023/08/10 04:13:11;;;;;;;8.63;5.13;;;;;;;12.82;100.00;100848.47;5045593;28;20041;-76
2023/08/10 04:15:39;;;;;;;6.25;5.18;;;;;;;12.82;100.00;100853.78;5049766;28;20132;-75
2023/08/10 04:18:07;;;;;;;7.90;5.50;;;;;;;12.81;100.00;100851.19;5048015;28;20046;-75
2023/08/10 04:20:37;;;;;;;10.70;5.47;;;;;;;12.84;100.00;100859.03;5021480;28;20156;-76
2023/08/10 04:23:07;;;;;;;7.55;5.97;;;;;;;12.84;100.00;100853.72;5044228;28;20109;-75
2023/08/10 04:25:35;;;;;;;8.48;5.93;;;;;;;12.89;100.00;100863.19;5040550;28;20068;-76
2023/08/10 04:28:03;;;;;;;9.50;6.10;;;;;;;12.86;100.00;100844.72;5047704;28;20063;-76
2023/08/10 04:30:32;;;;;;;6.85;5.95;;;;;;;12.91;100.00;100858.63;5023453;28;20037;-74
2023/08/10 04:33:01;;;;;;;10.00;5.93;;;;;;;12.93;100.00;100861.22;5019156;28;20045;-75
2023/08/10 04:35:30;;;;;;;6.82;5.50;;;;;;;12.94;100.00;100863.81;5044668;28;20041;-77
2023/08/10 04:38:03;;;;;;;7.85;5.75;;;;;;;12.99;100.00;100866.25;5032054;28;20045;-75
2023/08/10 04:40:32;;;;;;;7.80;5.35;;;;;;;13.10;100.00;100865.69;5047920;28;20045;-76
2023/08/10 04:43:03;;;;;;;8.60;5.50;;;;;;;13.17;100.00;100861.84;5039272;28;20056;-74
2023/08/10 04:45:32;;;;;;;6.65;5.13;;;;;;;13.26;100.00;100859.56;5029749;28;20045;-75
2023/08/10 04:48:01;;;;;;;9.10;5.53;;;;;;;13.25;100.00;100843.69;5036613;28;20034;-74
2023/08/10 04:50:29;;;;;;;6.78;5.28;;;;;;;13.46;100.00;100868.34;5055351;28;20045;-76
2023/08/10 04:52:57;;;;;;;9.18;6.13;;;;;;;13.48;100.00;100877.97;5035976;28;20045;-76
2023/08/10 04:55:26;;;;;;;8.23;5.43;;;;;;;13.41;100.00;100867.69;5047577;28;20045;-75
2023/08/10 04:57:54;;;;;;;7.30;5.18;;;;;;;13.43;100.00;100872.00;5062116;28;20103;-75
2023/08/10 05:00:24;;;;;;;6.68;5.40;;;;;;;13.44;100.00;100875.53;5058984;28;20102;-75
2023/08/10 05:02:53;;;;;;;9.02;5.13;;;;;;;13.52;100.00;100881.34;5034300;28;20046;-74
2023/08/10 05:05:23;;;;;;;8.48;4.95;;;;;;;13.53;100.00;100881.25;5046848;28;20085;-76
2023/08/10 05:07:54;;;;;;;6.07;4.93;;;;;;;13.45;100.00;100862.16;5040851;28;20049;-76
2023/08/10 05:10:23;;;;;;;5.97;4.57;;;;;;;13.70;100.00;100891.00;5043145;28;20045;-76
2023/08/10 05:12:53;;;;;;;7.32;5.43;;;;;;;13.73;100.00;100874.03;5042183;28;20099;-76
2023/08/10 05:15:23;;;;;;;6.47;5.47;;;;;;;13.91;100.00;100889.91;5043398;28;20056;-77
2023/08/10 05:17:53;;;;;;;7.43;5.60;;;;;;;13.97;100.00;100894.03;5043948;28;20037;-75
2023/08/10 05:20:21;;;;;;;5.75;5.13;;;;;;;13.93;100.00;100888.00;5041620;28;20813;-74
2023/08/10 05:22:51;;;;;;;9.98;5.75;;;;;;;13.88;100.00;100879.41;5020513;28;20042;-75
2023/08/10 05:25:20;;;;;;;8.48;5.35;;;;;;;14.11;100.00;100901.28;5039426;28;20552;-74
2023/08/10 05:27:49;;;;;;;5.28;4.78;;;;;;;14.22;100.00;100899.75;5038160;28;20049;-76
2023/08/10 05:30:18;;;;;;;7.82;5.10;;;;;;;14.28;100.00;100899.44;5045004;28;20052;-74
2023/08/10 05:32:47;;;;;;;8.93;5.40;;;;;;;14.29;100.00;100889.66;5036195;28;20473;-75
2023/08/10 05:35:16;;;;;;;6.85;4.90;;;;;;;14.27;100.00;100871.09;5027088;28;20053;-76
2023/08/10 05:37:46;;;;;;;6.43;4.65;;;;;;;14.52;100.00;100891.94;5036558;28;20115;-75
2023/08/10 05:40:15;;;;;;;7.55;4.65;;;;;;;14.60;100.00;100888.84;5021342;28;20789;-76
2023/08/10 05:42:44;;;;;;;7.03;4.70;;;;;;;14.76;100.00;100899.53;5038282;28;20047;-75
2023/08/10 05:45:15;;;;;;;8.18;4.60;;;;;;;14.81;100.00;100898.28;5038466;28;20048;-74
2023/08/10 05:47:48;;;;;;;5.43;4.43;;;;;;;14.94;100.00;100894.00;5051371;28;20045;-75
2023/08/10 05:50:20;;;;;;;6.05;4.85;;;;;;;15.01;100.00;100894.50;5033484;28;20089;-74
2023/08/10 05:52:49;;;;;;;8.90;5.05;;;;;;;15.15;100.00;100899.03;5033545;28;20445;-76
2023/08/10 05:55:17;;;;;;;7.07;4.97;;;;;;;15.12;100.00;100886.72;5038356;28;20049;-74
2023/08/10 05:57:45;;;;;;;7.22;5.20;;;;;;;15.21;100.00;100902.22;5034924;28;20049;-75
2023/08/10 06:00:14;;;;;;;27.23;16.70;;;;;;;15.13;100.00;100903.59;5048017;28;20072;-75
2023/08/10 06:02:42;;;;;;;7.95;5.40;;;;;;;15.13;100.00;100899.13;5036244;28;20045;-76
2023/08/10 06:05:13;;;;;;;6.30;4.50;;;;;;;15.12;100.00;100893.88;5027081;28;20053;-77
2023/08/10 06:07:41;;;;;;;6.30;4.40;;;;;;;15.30;100.00;100911.47;5039212;28;20041;-77
2023/08/10 06:10:09;;;;;;;7.72;4.90;;;;;;;15.38;100.00;100919.91;5045432;28;20098;-77
2023/08/10 06:12:38;;;;;;;8.75;4.57;;;;;;;15.37;100.00;100904.84;5021673;28;20060;-74
2023/08/10 06:15:07;;;;;;;8.32;5.25;;;;;;;15.47;100.00;100879.34;5037383;28;20041;-77
2023/08/10 06:17:37;;;;;;;8.60;4.93;;;;;;;15.72;100.00;100906.31;5035990;28;20421;-76
2023/08/10 06:20:09;;;;;;;7.63;4.45;;;;;;;15.70;100.00;100908.22;5037464;28;20045;-74
2023/08/10 06:22:44;;;;;;;7.10;5.18;;;;;;;15.52;100.00;100903.09;5038831;28;20059;-75
2023/08/10 06:25:15;;;;;;;7.75;4.93;;;;;;;15.52;100.00;100911.09;5025748;28;20072;-74
2023/08/10 06:27:47;;;;;;;7.25;4.80;;;;;;;15.43;100.00;100880.47;5040345;28;20045;-74
2023/08/10 06:30:18;;;;;;;8.13;6.60;;;;;;;15.70;100.00;100904.69;5042408;28;20053;-76
2023/08/10 06:32:47;;;;;;;7.25;5.28;;;;;;;15.88;100.00;100916.09;5015662;28;20543;-75
2023/08/10 06:35:17;;;;;;;5.32;4.35;;;;;;;15.89;100.00;100899.09;5038845;28;20037;-76
2023/08/10 06:37:48;;;;;;;5.75;4.65;;;;;;;15.89;100.00;100877.75;5042207;28;20053;-77
2023/08/10 06:40:16;;;;;;;8.68;5.03;;;;;;;16.06;100.00;100912.25;5040128;28;20068;-75
2023/08/10 06:42:44;;;;;;;9.48;4.80;;;;;;;16.27;100.00;100920.78;5035048;28;20051;-76
2023/08/10 06:45:18;;;;;;;8.90;4.90;;;;;;;16.75;100.00;100927.53;5030026;28;20041;-76
2023/08/10 06:47:46;;;;;;;6.07;4.55;;;;;;;17.22;100.00;100920.91;5036614;28;20788;-75
2023/08/10 06:50:16;;;;;;;9.90;4.60;;;;;;;17.67;100.00;100925.88;5034898;28;20375;-77
2023/08/10 06:52:45;;;;;;;7.50;4.65;;;;;;;17.92;100.00;100933.13;5031479;28;20052;-74
2023/08/10 06:55:14;;;;;;;7.45;4.82;;;;;;;18.03;100.00;100929.69;5037079;28;20041;-75
2023/08/10 06:57:44;;;;;;;6.57;5.10;;;;;;;17.81;100.00;100899.00;5037011;28;20049;-74
2023/08/10 07:00:20;;;;;;;7.68;4.97;;;;;;;18.04;100.00;100928.72;5027615;28;20084;-76
2023/08/10 07:02:53;;;;;;;6.13;4.80;;;;;;;17.96;100.00;100923.88;5035610;28;20079;-76
2023/08/10 07:05:26;;;;;;;6.20;4.60;;;;;;;18.02;100.00;100919.94;5045001;28;20056;-74
2023/08/10 07:07:55;;;;;;;9.48;4.85;;;;;;;18.11;100.00;100919.28;5033013;28;20049;-76
2023/08/10 07:10:26;;;;;;;5.03;4.38;;;;;;;18.01;100.00;100899.47;5040499;28;20041;-76
2023/08/10 07:12:56;;;;;;;8.32;4.80;;;;;;;17.85;100.00;100870.19;5017196;28;20523;-76
2023/08/10 07:15:23;;;;;;;6.28;4.90;;;;;;;18.31;100.00;100937.50;5025912;28;20049;-76
2023/08/10 07:17:52;;;;;;;7.43;4.60;;;;;;;18.36;100.00;100931.84;5041893;28;20084;-75
2023/08/10 07:20:21;;;;;;;7.88;4.47;;;;;;;18.37;100.00;100938.91;5043948;28;20076;-76
2023/08/10 07:22:51;;;;;;;8.70;4.88;;;;;;;18.39;100.00;100945.88;5057121;28;20102;-76
2023/08/10 07:25:20;;;;;;;8.65;5.00;;;;;;;18.34;100.00;100917.69;5043799;28;20414;-76
2023/08/10 07:27:57;;;;;;;9.18;5.60;;;;;;;18.65;100.00;100940.50;5043948;28;20061;-76
2023/08/10 07:30:25;;;;;;;6.00;4.10;;;;;;;18.81;100.00;100927.69;5024716;28;20056;-75
2023/08/10 07:32:54;;;;;;;8.27;5.10;;;;;;;18.92;100.00;100942.03;5034257;28;20076;-72
2023/08/10 07:35:23;;;;;;;8.38;5.10;;;;;;;18.83;100.00;100926.63;5037710;28;20042;-72
2023/08/10 07:37:51;;;;;;;7.35;4.68;;;;;;;18.99;100.00;100944.28;5037132;28;20651;-72
2023/08/10 07:40:19;;;;;;;8.57;5.10;;;;;;;19.04;100.00;100950.19;5052312;28;20634;-71
2023/08/10 07:42:47;;;;;;;6.60;4.20;;;;;;;19.06;100.00;100932.97;5030688;28;20045;-70
2023/08/10 07:45:16;;;;;;;7.78;4.55;;;;;;;19.19;100.00;100955.28;5054954;28;20053;-72
2023/08/10 07:47:44;;;;;;;7.57;4.72;;;;;;;19.16;100.00;100949.28;5049076;28;20045;-75
2023/08/10 07:50:15;;;;;;;8.95;5.13;;;;;;;19.06;100.00;100908.81;5037038;28;20069;-75
2023/08/10 07:52:43;;;;;;;8.27;5.80;;;;;;;19.63;100.00;100952.94;5064336;28;20041;-74
2023/08/10 07:55:13;;;;;;;8.15;4.95;;;;;;;19.77;98.59;100955.44;5041441;28;20068;-76
2023/08/10 07:57:41;;;;;;;7.18;5.03;;;;;;;19.83;98.56;100950.44;5043533;28;20049;-76
2023/08/10 08:00:10;;;;;;;7.63;5.35;;;;;;;20.18;96.00;100954.91;5011589;28;20045;-75
2023/08/10 08:02:42;;;;;;;7.65;4.70;;;;;;;20.59;94.35;100955.25;5033560;28;20040;-74
2023/08/10 08:05:11;;;;;;;8.30;5.57;;;;;;;20.93;88.02;100945.31;5030426;28;20049;-75
2023/08/10 08:07:39;;;;;;;10.68;5.07;;;;;;;21.42;82.11;100951.19;5041390;28;20060;-75
2023/08/10 08:10:07;;;;;;;5.90;4.20;;;;;;;21.57;81.32;100939.97;5037170;28;20049;-74
2023/08/10 08:12:35;;;;;;;6.40;4.18;;;;;;;21.95;78.00;100947.50;5056503;28;20049;-74
2023/08/10 08:15:04;;;;;;;8.07;4.13;;;;;;;22.29;74.97;100955.41;5044992;28;20042;-74
2023/08/10 08:18:11;;;;;;;7.95;5.30;;;;;;;22.42;74.60;100945.25;5042360;28;20064;-74
2023/08/10 08:20:41;;;;;;;6.57;4.40;;;;;;;22.63;71.10;100951.47;5036714;28;20052;-76
2023/08/10 08:23:09;;;;;;;5.03;3.38;;;;;;;22.60;70.00;100921.19;5041565;28;20060;-76
2023/08/10 08:25:37;;;;;;;5.45;3.47;;;;;;;22.86;69.09;100937.78;5041864;28;20131;-75
2023/08/10 08:28:08;;;;;;;4.28;3.47;;;;;;;23.02;69.85;100938.97;5031964;28;20103;-75
2023/08/10 08:30:36;;;;;;;5.70;3.50;;;;;;;22.72;69.32;100903.88;5030023;28;20045;-75
2023/08/10 08:33:06;;;;;;;8.45;3.50;;;;;;;22.71;73.78;100939.97;5045567;28;20045;-75
2023/08/10 08:35:35;;;;;;;5.45;3.00;;;;;;;22.55;72.67;100926.13;5041410;28;20045;-76
2023/08/10 08:38:05;;;;;;;4.22;3.08;;;;;;;22.45;73.63;100922.56;5040262;28;20049;-76
2023/08/10 08:40:33;;;;;;;6.53;3.03;;;;;;;22.03;73.54;100874.94;5041473;28;20120;-74
2023/08/10 08:43:04;;;;;;;5.30;3.70;;;;;;;22.14;73.18;100921.69;5037559;28;20029;-77
2023/08/10 08:45:35;;;;;;;5.03;3.53;;;;;;;22.01;76.80;100914.66;5034726;28;20817;-74
2023/08/10 08:48:05;;;;;;;5.00;3.30;;;;;;;21.85;77.25;100900.75;5036264;28;20124;-75
2023/08/10 08:50:36;;;;;;;6.22;3.13;;;;;;;21.84;75.71;100917.94;5030507;28;20124;-74
2023/08/10 08:53:08;;;;;;;9.60;2.95;;;;;;;21.68;80.50;100925.63;5038784;28;20060;-75
2023/08/10 08:55:36;;;;;;;5.68;2.70;;;;;;;21.74;78.42;100911.59;5026548;28;20036;-77
2023/08/10 08:58:05;;;;;;;9.43;3.25;;;;;;;21.79;75.87;100893.19;5033712;28;20501;-74
2023/08/10 09:00:36;;;;;;;6.45;4.45;;;;;;;22.08;73.85;100903.31;5039814;28;20056;-75
2023/08/10 09:03:05;;;;;;;5.97;2.88;;;;;;;22.50;69.03;100907.66;5039768;28;20067;-75
2023/08/10 09:05:34;;;;;;;5.28;2.97;;;;;;;22.86;66.91;100903.53;5030672;28;20611;-75
2023/08/10 09:08:02;;;;;;;8.82;3.30;;;;;;;22.94;64.99;100892.06;5013413;28;20052;-76
2023/08/10 09:10:33;;;;;;;6.25;3.20;;;;;;;23.11;61.24;100848.16;5043200;28;20060;-76
2023/08/10 09:13:10;;;;;;;5.28;3.17;;;;;;;23.55;58.83;100886.41;5037910;28;20055;-75
2023/08/10 09:15:39;;;;;;;5.53;3.58;;;;;;;23.32;59.85;100883.97;5037752;28;20088;-75
2023/08/10 09:18:07;;;;;;;8.50;3.83;;;;;;;22.42;63.33;100888.59;5042880;28;20045;-75
2023/08/10 09:20:35;;;;;;;6.82;4.00;;;;;;;21.56;69.54;100887.09;5022473;28;20768;-71
2023/08/10 09:23:04;;;;;;;7.90;4.20;;;;;;;21.05;73.94;100886.03;5034691;28;20053;-71
2023/08/10 09:25:43;;;;;;;7.70;3.60;;;;;;;20.92;75.08;100883.50;5031470;28;20041;-71
2023/08/10 09:28:12;;;;;;;7.93;3.78;;;;;;;20.82;78.01;100875.31;5046234;28;20065;-72
2023/08/10 09:30:41;;;;;;;4.55;3.35;;;;;;;20.83;77.49;100876.19;5035499;28;20037;-72
2023/08/10 09:33:10;;;;;;;7.72;3.83;;;;;;;20.90;76.89;100890.84;5025221;28;20682;-72
2023/08/10 09:35:38;;;;;;;8.90;4.03;;;;;;;20.93;77.83;100887.91;5036207;28;20395;-72
2023/08/10 09:38:06;;;;;;;7.70;3.85;;;;;;;20.84;77.83;100857.22;5042029;28;20047;-71
2023/08/10 09:40:35;;;;;;;8.00;4.20;;;;;;;20.88;78.98;100869.44;5046451;28;20472;-72
2023/08/10 09:43:13;;;;;;;8.50;4.70;;;;;;;20.98;77.67;100880.28;5049386;28;20125;-75
2023/08/10 09:45:42;;;;;;;6.53;4.05;;;;;;;20.94;77.93;100890.47;5043626;28;20072;-73
2023/08/10 09:48:11;;;;;;;9.27;4.70;;;;;;;20.89;76.27;100870.31;5047052;28;20056;-73
2023/08/10 09:50:41;;;;;;;8.60;4.43;;;;;;;21.14;78.06;100878.03;5043454;28;20052;-72
2023/08/10 09:53:09;;;;;;;6.00;3.83;;;;;;;21.39;76.28;100892.19;5023356;28;20049;-74
2023/08/10 09:55:37;;;;;;;7.82;4.28;;;;;;;21.45;72.73;100862.88;5034690;28;20100;-72
2023/08/10 09:58:05;;;;;;;7.25;3.30;;;;;;;21.78;70.93;100877.16;5028606;28;20044;-72
2023/08/10 10:00:39;;;;;;;4.75;3.08;;;;;;;22.05;70.36;100872.09;5029347;28;20108;-75
2023/08/10 10:03:08;;;;;;;7.22;2.97;;;;;;;22.28;68.80;100872.78;5039986;28;20115;-73
2023/08/10 10:05:37;;;;;;;5.60;3.00;;;;;;;22.38;65.36;100854.75;5035138;28;20140;-75
2023/08/10 10:08:07;;;;;;;7.63;3.42;;;;;;;22.57;62.76;100857.53;5045980;28;20045;-78
2023/08/10 10:10:41;;;;;;;5.82;2.80;;;;;;;22.70;62.63;100868.06;5040095;28;20056;-73
2023/08/10 10:13:12;;;;;;;6.93;3.45;;;;;;;22.44;59.61;100856.94;5040475;28;20069;-72
2023/08/10 10:15:45;;;;;;;5.72;3.22;;;;;;;22.27;61.15;100868.38;5029276;28;20048;-74
2023/08/10 10:18:13;;;;;;;5.30;2.85;;;;;;;22.07;63.34;100862.03;5014505;28;20041;-74
2023/08/10 10:20:44;;;;;;;5.93;3.15;;;;;;;22.11;63.79;100865.31;5026931;28;20041;-76
2023/08/10 10:23:16;;;;;;;6.40;3.10;;;;;;;22.30;64.99;100865.41;5041889;28;20080;-75
2023/08/10 10:25:57;;;;;;;4.95;3.35;;;;;;;22.50;62.27;100861.78;5043734;28;20101;-75
2023/08/10 10:28:30;;;;;;;6.15;3.33;;;;;;;22.66;60.95;100851.31;5053666;28;20092;-73
2023/08/10 10:31:10;;;;;;;9.15;3.05;;;;;;;22.79;61.15;100850.25;5049967;28;20053;-73
2023/08/10 10:33:55;;;;;;;3.80;2.90;;;;;;;22.65;61.90;100827.16;5052550;28;20064;-73
2023/08/10 10:36:25;;;;;;;5.28;2.60;;;;;;;22.83;62.85;100847.09;5052937;28;20042;-74
2023/08/10 10:38:55;;;;;;;6.17;3.00;;;;;;;22.75;61.75;100836.13;5050047;28;20072;-74
2023/08/10 10:41:32;;;;;;;4.70;3.10;;;;;;;22.37;64.30;100844.97;5046539;28;20041;-75
2023/08/10 10:44:03;;;;;;;3.67;3.05;;;;;;;22.03;64.39;100844.41;5041071;28;20132;-73
2023/08/10 10:46:41;;;;;;;3.55;2.40;;;;;;;22.15;66.80;100818.19;5042928;28;20045;-73
2023/08/10 10:49:13;;;;;;;3.90;2.70;;;;;;;22.43;63.60;100830.94;5035547;28;20041;-73
2023/08/10 10:51:54;;;;;;;5.10;3.20;;;;;;;22.55;63.29;100837.91;5041201;28;20041;-71
2023/08/10 10:54:24;;;;;;;5.03;2.90;;;;;;;22.67;62.64;100831.41;5031954;28;20047;-71
2023/08/10 10:56:53;;;;;;;4.05;2.90;;;;;;;22.89;64.28;100832.19;5024255;28;20052;-71
2023/08/10 10:59:21;;;;;;;4.78;3.28;;;;;;;23.11;61.33;100822.97;5038436;28;20132;-72
2023/08/10 11:01:52;;;;;;;6.43;2.75;;;;;;;23.22;62.98;100828.22;5034054;28;20033;-71
2023/08/10 11:04:22;;;;;;;5.78;3.17;;;;;;;23.24;58.31;100823.53;5038647;28;20064;-74
2023/08/10 11:06:58;;;;;;;4.07;2.85;;;;;;;23.15;59.99;100829.78;5033829;28;20057;-73
2023/08/10 11:09:27;;;;;;;6.38;3.10;;;;;;;22.99;60.96;100824.94;5023800;28;20041;-70
2023/08/10 11:11:57;;;;;;;5.93;3.50;;;;;;;22.98;60.93;100829.50;5040851;28;20049;-71
2023/08/10 11:14:27;;;;;;;5.07;3.67;;;;;;;23.19;58.40;100815.00;5033467;28;20046;-71
2023/08/10 11:16:57;;;;;;;5.03;2.80;;;;;;;23.49;58.22;100828.34;5029321;28;20136;-71
2023/08/10 11:19:33;;;;;;;3.35;2.00;;;;;;;23.52;53.84;100813.72;5040774;28;20132;-71
2023/08/10 11:22:02;;;;;;;5.35;2.47;;;;;;;23.57;54.16;100822.25;5044517;28;20046;-72
2023/08/10 11:24:31;;;;;;;3.13;2.17;;;;;;;23.49;54.66;100819.38;5042657;28;20041;-72
2023/08/10 11:27:02;;;;;;;5.85;2.30;;;;;;;23.35;55.49;100804.47;5040928;28;20999;-72
2023/08/10 11:29:31;;;;;;;5.25;2.28;;;;;;;23.41;51.74;100804.75;5038888;28;20345;-70
2023/08/10 11:32:00;;;;;;;4.93;2.20;;;;;;;23.35;52.60;100805.31;5039835;28;20041;-69